sensor_id;sensor_type;location;lat;lon;timestamp;temperature;humidity
7196;DHT22;3639;51.308;5.624;2022-08-25T00:01:14;22.20;99.90
7196;DHT22;3639;51.308;5.624;2022-08-25T00:03:41;22.20;99.90
7196;DHT22;3639;51.308;5.624;2022-08-25T00:06:09;22.20;99.90
7196;DHT22;3639;51.308;5.624;2022-08-25T00:08:35;22.10;99.90
7196;DHT22;3639;51.308;5.624;2022-08-25T00:11:20;21.90;99.90
7196;DHT22;3639;51.308;5.624;2022-08-25T00:13:50;21.90;99.90
7196;DHT22;3639;51.308;5.624;2022-08-25T00:16:17;21.90;99.90
7196;DHT22;3639;51.308;5.624;2022-08-25T00:18:45;21.90;99.90
7196;DHT22;3639;51.308;5.624;2022-08-25T00:21:13;21.80;99.90
7196;DHT22;3639;51.308;5.624;2022-08-25T00:23:39;21.80;99.90
7196;DHT22;3639;51.308;5.624;2022-08-25T00:26:05;21.70;99.90
7196;DHT22;3639;51.308;5.624;2022-08-25T00:28:31;21.60;99.90
7196;DHT22;3639;51.308;5.624;2022-08-25T00:30:58;21.60;99.90
7196;DHT22;3639;51.308;5.624;2022-08-25T00:33:26;21.50;99.90
7196;DHT22;3639;51.308;5.624;2022-08-25T00:35:52;21.40;99.90
7196;DHT22;3639;51.308;5.624;2022-08-25T00:38:18;21.30;99.90
7196;DHT22;3639;51.308;5.624;2022-08-25T00:40:44;21.30;99.90
7196;DHT22;3639;51.308;5.624;2022-08-25T00:43:10;21.20;99.90
7196;DHT22;3639;51.308;5.624;2022-08-25T00:45:36;21.20;99.90
7196;DHT22;3639;51.308;5.624;2022-08-25T00:48:02;21.10;99.90
7196;DHT22;3639;51.308;5.624;2022-08-25T00:50:30;21.00;99.90
7196;DHT22;3639;51.308;5.624;2022-08-25T00:52:59;21.00;99.90
7196;DHT22;3639;51.308;5.624;2022-08-25T00:55:30;20.90;99.90
7196;DHT22;3639;51.308;5.624;2022-08-25T00:58:19;20.80;99.90
7196;DHT22;3639;51.308;5.624;2022-08-25T01:00:48;20.80;99.90
7196;DHT22;3639;51.308;5.624;2022-08-25T01:03:15;20.80;99.90
7196;DHT22;3639;51.308;5.624;2022-08-25T01:05:44;20.70;99.90
7196;DHT22;3639;51.308;5.624;2022-08-25T01:08:10;20.70;99.90
7196;DHT22;3639;51.308;5.624;2022-08-25T01:10:39;20.70;99.90
7196;DHT22;3639;51.308;5.624;2022-08-25T01:13:12;20.70;99.90
7196;DHT22;3639;51.308;5.624;2022-08-25T01:15:39;20.70;99.90
7196;DHT22;3639;51.308;5.624;2022-08-25T01:18:05;20.60;99.90
7196;DHT22;3639;51.308;5.624;2022-08-25T01:20:32;20.60;99.90
7196;DHT22;3639;51.308;5.624;2022-08-25T01:22:59;20.50;99.90
7196;DHT22;3639;51.308;5.624;2022-08-25T01:25:42;20.60;99.90
7196;DHT22;3639;51.308;5.624;2022-08-25T01:28:10;20.60;99.90
7196;DHT22;3639;51.308;5.624;2022-08-25T01:30:37;20.50;99.90
7196;DHT22;3639;51.308;5.624;2022-08-25T01:33:08;20.60;99.90
7196;DHT22;3639;51.308;5.624;2022-08-25T01:35:34;20.60;99.90
7196;DHT22;3639;51.308;5.624;2022-08-25T01:38:02;20.50;99.90
7196;DHT22;3639;51.308;5.624;2022-08-25T01:40:28;20.50;99.90
7196;DHT22;3639;51.308;5.624;2022-08-25T01:43:02;20.50;99.90
7196;DHT22;3639;51.308;5.624;2022-08-25T01:45:31;20.50;99.90
7196;DHT22;3639;51.308;5.624;2022-08-25T01:47:57;20.50;99.90
7196;DHT22;3639;51.308;5.624;2022-08-25T01:50:22;20.40;99.90
7196;DHT22;3639;51.308;5.624;2022-08-25T01:53:05;20.40;99.90
7196;DHT22;3639;51.308;5.624;2022-08-25T01:55:32;20.40;99.90
7196;DHT22;3639;51.308;5.624;2022-08-25T01:58:17;20.30;99.90
7196;DHT22;3639;51.308;5.624;2022-08-25T02:00:47;20.30;99.90
7196;DHT22;3639;51.308;5.624;2022-08-25T02:03:14;20.40;99.90
7196;DHT22;3639;51.308;5.624;2022-08-25T02:05:40;20.30;99.90
7196;DHT22;3639;51.308;5.624;2022-08-25T02:08:06;20.40;99.90
7196;DHT22;3639;51.308;5.624;2022-08-25T02:10:32;20.40;99.90
7196;DHT22;3639;51.308;5.624;2022-08-25T02:12:58;20.40;99.90
7196;DHT22;3639;51.308;5.624;2022-08-25T02:15:23;20.40;99.90
7196;DHT22;3639;51.308;5.624;2022-08-25T02:17:49;20.30;99.90
7196;DHT22;3639;51.308;5.624;2022-08-25T02:20:15;20.30;99.90
7196;DHT22;3639;51.308;5.624;2022-08-25T02:22:41;20.30;99.90
7196;DHT22;3639;51.308;5.624;2022-08-25T02:25:07;20.30;99.90
7196;DHT22;3639;51.308;5.624;2022-08-25T02:27:33;20.30;99.90
7196;DHT22;3639;51.308;5.624;2022-08-25T02:29:59;20.30;99.90
7196;DHT22;3639;51.308;5.624;2022-08-25T02:32:25;20.30;99.90
7196;DHT22;3639;51.308;5.624;2022-08-25T02:34:52;20.30;99.90
7196;DHT22;3639;51.308;5.624;2022-08-25T02:37:17;20.30;99.90
7196;DHT22;3639;51.308;5.624;2022-08-25T02:39:45;20.30;99.90
7196;DHT22;3639;51.308;5.624;2022-08-25T02:42:10;20.30;99.90
7196;DHT22;3639;51.308;5.624;2022-08-25T02:44:36;20.30;99.90
7196;DHT22;3639;51.308;5.624;2022-08-25T02:47:02;20.30;99.90
7196;DHT22;3639;51.308;5.624;2022-08-25T02:49:28;20.20;99.90
7196;DHT22;3639;51.308;5.624;2022-08-25T02:51:55;20.20;99.90
7196;DHT22;3639;51.308;5.624;2022-08-25T02:54:23;20.20;99.90
7196;DHT22;3639;51.308;5.624;2022-08-25T02:56:49;20.20;99.90
7196;DHT22;3639;51.308;5.624;2022-08-25T02:59:17;20.20;99.90
7196;DHT22;3639;51.308;5.624;2022-08-25T03:01:43;20.20;99.90
7196;DHT22;3639;51.308;5.624;2022-08-25T03:04:09;20.20;99.90
7196;DHT22;3639;51.308;5.624;2022-08-25T03:06:34;20.20;99.90
7196;DHT22;3639;51.308;5.624;2022-08-25T03:09:00;20.20;99.90
7196;DHT22;3639;51.308;5.624;2022-08-25T03:11:26;20.10;99.90
7196;DHT22;3639;51.308;5.624;2022-08-25T03:13:52;20.20;99.90
7196;DHT22;3639;51.308;5.624;2022-08-25T03:16:18;20.20;99.90
7196;DHT22;3639;51.308;5.624;2022-08-25T03:18:45;20.10;99.90
7196;DHT22;3639;51.308;5.624;2022-08-25T03:21:11;20.10;99.90
7196;DHT22;3639;51.308;5.624;2022-08-25T03:23:39;20.00;99.90
7196;DHT22;3639;51.308;5.624;2022-08-25T03:26:05;20.00;99.90
7196;DHT22;3639;51.308;5.624;2022-08-25T03:28:49;19.90;99.90
7196;DHT22;3639;51.308;5.624;2022-08-25T03:31:15;19.90;99.90
7196;DHT22;3639;51.308;5.624;2022-08-25T03:33:41;19.90;99.90
7196;DHT22;3639;51.308;5.624;2022-08-25T03:36:07;19.90;99.90
7196;DHT22;3639;51.308;5.624;2022-08-25T03:38:34;19.80;99.90
7196;DHT22;3639;51.308;5.624;2022-08-25T03:41:13;19.80;99.90
7196;DHT22;3639;51.308;5.624;2022-08-25T03:43:40;19.80;99.90
7196;DHT22;3639;51.308;5.624;2022-08-25T03:46:05;19.80;99.90
7196;DHT22;3639;51.308;5.624;2022-08-25T03:48:31;19.70;99.90
7196;DHT22;3639;51.308;5.624;2022-08-25T03:50:57;19.70;99.90
7196;DHT22;3639;51.308;5.624;2022-08-25T03:53:22;19.70;99.90
7196;DHT22;3639;51.308;5.624;2022-08-25T03:55:48;19.70;99.90
7196;DHT22;3639;51.308;5.624;2022-08-25T03:58:14;19.70;99.90
7196;DHT22;3639;51.308;5.624;2022-08-25T04:00:40;19.60;99.90
7196;DHT22;3639;51.308;5.624;2022-08-25T04:03:06;19.60;99.90
7196;DHT22;3639;51.308;5.624;2022-08-25T04:05:32;19.60;99.90
7196;DHT22;3639;51.308;5.624;2022-08-25T04:07:58;19.60;99.90
7196;DHT22;3639;51.308;5.624;2022-08-25T04:10:25;19.50;99.90
7196;DHT22;3639;51.308;5.624;2022-08-25T04:12:50;19.60;99.90
7196;DHT22;3639;51.308;5.624;2022-08-25T04:15:16;19.50;99.90
7196;DHT22;3639;51.308;5.624;2022-08-25T04:17:42;19.50;99.90
7196;DHT22;3639;51.308;5.624;2022-08-25T04:20:10;19.40;99.90
7196;DHT22;3639;51.308;5.624;2022-08-25T04:22:36;19.40;99.90
7196;DHT22;3639;51.308;5.624;2022-08-25T04:25:04;19.40;99.90
7196;DHT22;3639;51.308;5.624;2022-08-25T04:27:30;19.40;99.90
7196;DHT22;3639;51.308;5.624;2022-08-25T04:29:56;19.40;99.90
7196;DHT22;3639;51.308;5.624;2022-08-25T04:32:21;19.40;99.90
7196;DHT22;3639;51.308;5.624;2022-08-25T04:34:47;19.30;99.90
7196;DHT22;3639;51.308;5.624;2022-08-25T04:37:13;19.30;99.90
7196;DHT22;3639;51.308;5.624;2022-08-25T04:39:39;19.20;99.90
7196;DHT22;3639;51.308;5.624;2022-08-25T04:42:05;19.20;99.90
7196;DHT22;3639;51.308;5.624;2022-08-25T04:44:31;19.20;99.90
7196;DHT22;3639;51.308;5.624;2022-08-25T04:46:56;19.20;99.90
7196;DHT22;3639;51.308;5.624;2022-08-25T04:49:22;19.20;99.90
7196;DHT22;3639;51.308;5.624;2022-08-25T04:51:48;19.30;99.90
7196;DHT22;3639;51.308;5.624;2022-08-25T04:54:15;19.30;99.90
7196;DHT22;3639;51.308;5.624;2022-08-25T04:56:50;19.30;99.90
7196;DHT22;3639;51.308;5.624;2022-08-25T04:59:17;19.30;99.90
7196;DHT22;3639;51.308;5.624;2022-08-25T05:01:43;19.30;99.90
7196;DHT22;3639;51.308;5.624;2022-08-25T05:04:12;19.30;99.90
7196;DHT22;3639;51.308;5.624;2022-08-25T05:06:39;19.30;99.90
7196;DHT22;3639;51.308;5.624;2022-08-25T05:09:05;19.30;99.90
7196;DHT22;3639;51.308;5.624;2022-08-25T05:11:31;19.40;99.90
7196;DHT22;3639;51.308;5.624;2022-08-25T05:13:58;19.30;99.90
7196;DHT22;3639;51.308;5.624;2022-08-25T05:16:25;19.40;99.90
7196;DHT22;3639;51.308;5.624;2022-08-25T05:18:52;19.40;99.90
7196;DHT22;3639;51.308;5.624;2022-08-25T05:21:21;19.40;99.90
7196;DHT22;3639;51.308;5.624;2022-08-25T05:23:48;19.50;99.90
7196;DHT22;3639;51.308;5.624;2022-08-25T05:26:16;19.50;99.90
7196;DHT22;3639;51.308;5.624;2022-08-25T05:28:42;19.50;99.90
7196;DHT22;3639;51.308;5.624;2022-08-25T05:31:11;19.60;99.90
7196;DHT22;3639;51.308;5.624;2022-08-25T05:33:38;19.60;99.90
7196;DHT22;3639;51.308;5.624;2022-08-25T05:36:04;19.70;99.90
7196;DHT22;3639;51.308;5.624;2022-08-25T05:38:31;19.70;99.90
7196;DHT22;3639;51.308;5.624;2022-08-25T05:40:58;19.70;99.90
7196;DHT22;3639;51.308;5.624;2022-08-25T05:43:25;19.80;99.90
7196;DHT22;3639;51.308;5.624;2022-08-25T05:45:55;19.90;99.90
7196;DHT22;3639;51.308;5.624;2022-08-25T05:48:23;19.90;99.90
7196;DHT22;3639;51.308;5.624;2022-08-25T05:50:53;20.00;99.90
7196;DHT22;3639;51.308;5.624;2022-08-25T05:53:20;20.00;99.90
7196;DHT22;3639;51.308;5.624;2022-08-25T05:55:47;20.10;99.90
7196;DHT22;3639;51.308;5.624;2022-08-25T05:58:13;20.10;99.90
7196;DHT22;3639;51.308;5.624;2022-08-25T06:00:39;20.20;99.90
7196;DHT22;3639;51.308;5.624;2022-08-25T06:03:05;20.20;99.90
7196;DHT22;3639;51.308;5.624;2022-08-25T06:05:32;20.30;99.90
7196;DHT22;3639;51.308;5.624;2022-08-25T06:07:58;20.40;99.90
7196;DHT22;3639;51.308;5.624;2022-08-25T06:10:27;20.40;99.90
7196;DHT22;3639;51.308;5.624;2022-08-25T06:12:53;20.60;99.90
7196;DHT22;3639;51.308;5.624;2022-08-25T06:15:21;20.70;99.90
7196;DHT22;3639;51.308;5.624;2022-08-25T06:17:48;20.80;99.90
7196;DHT22;3639;51.308;5.624;2022-08-25T06:20:22;20.90;99.90
7196;DHT22;3639;51.308;5.624;2022-08-25T06:22:48;20.90;99.90
7196;DHT22;3639;51.308;5.624;2022-08-25T06:25:16;21.00;99.90
7196;DHT22;3639;51.308;5.624;2022-08-25T06:27:42;21.10;99.90
7196;DHT22;3639;51.308;5.624;2022-08-25T06:30:10;21.20;99.90
7196;DHT22;3639;51.308;5.624;2022-08-25T06:32:38;21.30;99.90
7196;DHT22;3639;51.308;5.624;2022-08-25T06:35:05;21.40;99.90
7196;DHT22;3639;51.308;5.624;2022-08-25T06:37:31;21.50;99.90
7196;DHT22;3639;51.308;5.624;2022-08-25T06:39:57;21.60;99.90
7196;DHT22;3639;51.308;5.624;2022-08-25T06:42:23;21.70;99.90
7196;DHT22;3639;51.308;5.624;2022-08-25T06:44:48;21.80;99.90
7196;DHT22;3639;51.308;5.624;2022-08-25T06:47:15;21.90;99.90
7196;DHT22;3639;51.308;5.624;2022-08-25T06:49:42;22.00;99.90
7196;DHT22;3639;51.308;5.624;2022-08-25T06:52:08;22.00;99.90
7196;DHT22;3639;51.308;5.624;2022-08-25T06:54:34;22.10;99.90
7196;DHT22;3639;51.308;5.624;2022-08-25T06:57:00;22.30;99.90
7196;DHT22;3639;51.308;5.624;2022-08-25T06:59:26;22.40;99.90
7196;DHT22;3639;51.308;5.624;2022-08-25T07:01:52;22.50;99.90
7196;DHT22;3639;51.308;5.624;2022-08-25T07:04:18;22.60;99.90
7196;DHT22;3639;51.308;5.624;2022-08-25T07:06:45;22.70;99.90
7196;DHT22;3639;51.308;5.624;2022-08-25T07:09:12;22.90;99.90
7196;DHT22;3639;51.308;5.624;2022-08-25T07:11:40;23.10;99.90
7196;DHT22;3639;51.308;5.624;2022-08-25T07:14:07;23.20;99.90
7196;DHT22;3639;51.308;5.624;2022-08-25T07:16:34;23.30;99.90
7196;DHT22;3639;51.308;5.624;2022-08-25T07:19:00;23.60;99.90
7196;DHT22;3639;51.308;5.624;2022-08-25T07:21:28;23.80;99.60
7196;DHT22;3639;51.308;5.624;2022-08-25T07:23:54;23.80;99.70
7196;DHT22;3639;51.308;5.624;2022-08-25T07:26:25;23.90;99.80
7196;DHT22;3639;51.308;5.624;2022-08-25T07:28:51;24.10;99.90
7196;DHT22;3639;51.308;5.624;2022-08-25T07:31:17;24.30;99.40
7196;DHT22;3639;51.308;5.624;2022-08-25T07:33:42;24.40;99.10
7196;DHT22;3639;51.308;5.624;2022-08-25T07:36:29;24.50;99.20
7196;DHT22;3639;51.308;5.624;2022-08-25T07:38:57;24.70;98.90
7196;DHT22;3639;51.308;5.624;2022-08-25T07:41:23;24.70;98.50
7196;DHT22;3639;51.308;5.624;2022-08-25T07:43:49;24.90;98.50
7196;DHT22;3639;51.308;5.624;2022-08-25T07:46:14;25.20;98.10
7196;DHT22;3639;51.308;5.624;2022-08-25T07:48:40;25.30;97.40
7196;DHT22;3639;51.308;5.624;2022-08-25T07:51:11;25.50;97.00
7196;DHT22;3639;51.308;5.624;2022-08-25T07:53:38;25.60;96.70
7196;DHT22;3639;51.308;5.624;2022-08-25T07:56:11;25.70;97.10
7196;DHT22;3639;51.308;5.624;2022-08-25T07:58:38;25.90;96.40
7196;DHT22;3639;51.308;5.624;2022-08-25T08:01:04;26.00;96.20
7196;DHT22;3639;51.308;5.624;2022-08-25T08:03:30;26.20;95.90
7196;DHT22;3639;51.308;5.624;2022-08-25T08:05:57;26.30;95.90
7196;DHT22;3639;51.308;5.624;2022-08-25T08:08:24;26.40;95.40
7196;DHT22;3639;51.308;5.624;2022-08-25T08:10:49;26.50;95.10
7196;DHT22;3639;51.308;5.624;2022-08-25T08:13:15;26.70;95.20
7196;DHT22;3639;51.308;5.624;2022-08-25T08:15:42;26.70;94.60
7196;DHT22;3639;51.308;5.624;2022-08-25T08:18:08;26.90;94.80
7196;DHT22;3639;51.308;5.624;2022-08-25T08:20:35;27.10;94.50
7196;DHT22;3639;51.308;5.624;2022-08-25T08:23:01;27.30;94.70
7196;DHT22;3639;51.308;5.624;2022-08-25T08:25:26;27.30;94.20
7196;DHT22;3639;51.308;5.624;2022-08-25T08:27:52;27.50;94.30
7196;DHT22;3639;51.308;5.624;2022-08-25T08:30:18;27.40;93.50
7196;DHT22;3639;51.308;5.624;2022-08-25T08:32:44;27.40;93.40
7196;DHT22;3639;51.308;5.624;2022-08-25T08:35:10;27.40;93.70
7196;DHT22;3639;51.308;5.624;2022-08-25T08:37:35;27.40;93.10
7196;DHT22;3639;51.308;5.624;2022-08-25T08:40:08;27.50;93.00
7196;DHT22;3639;51.308;5.624;2022-08-25T08:45:10;27.70;92.80
7196;DHT22;3639;51.308;5.624;2022-08-25T08:50:25;28.00;91.70
7196;DHT22;3639;51.308;5.624;2022-08-25T08:55:31;28.40;91.50
7196;DHT22;3639;51.308;5.624;2022-08-25T08:58:03;28.60;91.40
7196;DHT22;3639;51.308;5.624;2022-08-25T09:00:30;28.70;91.40
7196;DHT22;3639;51.308;5.624;2022-08-25T09:03:05;28.80;91.20
7196;DHT22;3639;51.308;5.624;2022-08-25T09:05:40;29.00;90.50
7196;DHT22;3639;51.308;5.624;2022-08-25T09:08:10;29.10;90.70
7196;DHT22;3639;51.308;5.624;2022-08-25T09:11:01;29.00;90.30
7196;DHT22;3639;51.308;5.624;2022-08-25T09:16:54;29.00;91.00
7196;DHT22;3639;51.308;5.624;2022-08-25T09:27:45;29.10;89.90
7196;DHT22;3639;51.308;5.624;2022-08-25T09:30:16;29.10;89.50
7196;DHT22;3639;51.308;5.624;2022-08-25T09:32:46;29.20;90.20
7196;DHT22;3639;51.308;5.624;2022-08-25T09:35:33;29.30;89.90
7196;DHT22;3639;51.308;5.624;2022-08-25T09:38:07;29.50;90.00
7196;DHT22;3639;51.308;5.624;2022-08-25T09:40:40;29.50;90.10
7196;DHT22;3639;51.308;5.624;2022-08-25T09:45:57;29.70;90.00
7196;DHT22;3639;51.308;5.624;2022-08-25T09:48:33;29.90;90.20
7196;DHT22;3639;51.308;5.624;2022-08-25T09:53:59;30.10;89.20
7196;DHT22;3639;51.308;5.624;2022-08-25T09:56:29;29.90;85.80
7196;DHT22;3639;51.308;5.624;2022-08-25T09:59:32;29.90;84.30
7196;DHT22;3639;51.308;5.624;2022-08-25T10:02:00;29.90;86.10
7196;DHT22;3639;51.308;5.624;2022-08-25T10:04:31;29.90;86.00
7196;DHT22;3639;51.308;5.624;2022-08-25T10:07:02;29.90;86.10
7196;DHT22;3639;51.308;5.624;2022-08-25T10:09:36;30.10;87.50
7196;DHT22;3639;51.308;5.624;2022-08-25T10:12:15;30.40;87.40
7196;DHT22;3639;51.308;5.624;2022-08-25T10:14:42;30.40;85.60
7196;DHT22;3639;51.308;5.624;2022-08-25T10:17:28;30.60;87.20
7196;DHT22;3639;51.308;5.624;2022-08-25T10:22:42;30.80;84.40
7196;DHT22;3639;51.308;5.624;2022-08-25T10:25:11;30.60;80.60
7196;DHT22;3639;51.308;5.624;2022-08-25T10:28:06;30.70;81.10
7196;DHT22;3639;51.308;5.624;2022-08-25T10:39:00;31.20;82.00
7196;DHT22;3639;51.308;5.624;2022-08-25T10:44:43;31.30;80.60
7196;DHT22;3639;51.308;5.624;2022-08-25T11:01:38;32.00;77.90
7196;DHT22;3639;51.308;5.624;2022-08-25T11:04:11;32.00;77.10
7196;DHT22;3639;51.308;5.624;2022-08-25T11:06:49;32.20;74.10
7196;DHT22;3639;51.308;5.624;2022-08-25T11:09:25;32.30;75.50
7196;DHT22;3639;51.308;5.624;2022-08-25T11:11:59;32.40;74.20
7196;DHT22;3639;51.308;5.624;2022-08-25T11:14:38;32.40;75.30
7196;DHT22;3639;51.308;5.624;2022-08-25T11:19:46;32.30;73.60
7196;DHT22;3639;51.308;5.624;2022-08-25T11:30:43;32.80;72.70
7196;DHT22;3639;51.308;5.624;2022-08-25T11:33:17;32.80;72.70
7196;DHT22;3639;51.308;5.624;2022-08-25T11:35:55;32.50;71.20
7196;DHT22;3639;51.308;5.624;2022-08-25T11:38:55;32.50;70.10
7196;DHT22;3639;51.308;5.624;2022-08-25T11:41:55;32.70;70.20
7196;DHT22;3639;51.308;5.624;2022-08-25T11:44:42;32.80;66.30
7196;DHT22;3639;51.308;5.624;2022-08-25T11:55:26;33.00;66.10
7196;DHT22;3639;51.308;5.624;2022-08-25T12:01:02;33.10;63.50
7196;DHT22;3639;51.308;5.624;2022-08-25T12:06:16;32.80;64.60
7196;DHT22;3639;51.308;5.624;2022-08-25T12:33:28;32.60;65.70
7196;DHT22;3639;51.308;5.624;2022-08-25T12:38:33;32.80;62.30
7196;DHT22;3639;51.308;5.624;2022-08-25T12:41:03;32.70;63.20
7196;DHT22;3639;51.308;5.624;2022-08-25T12:43:34;32.80;64.10
7196;DHT22;3639;51.308;5.624;2022-08-25T12:51:44;32.60;62.40
7196;DHT22;3639;51.308;5.624;2022-08-25T12:57:44;32.30;61.70
7196;DHT22;3639;51.308;5.624;2022-08-25T13:01:18;32.30;61.60
7196;DHT22;3639;51.308;5.624;2022-08-25T13:09:30;32.40;61.80
7196;DHT22;3639;51.308;5.624;2022-08-25T13:12:30;32.40;61.80
7196;DHT22;3639;51.308;5.624;2022-08-25T13:14:58;32.40;62.00
7196;DHT22;3639;51.308;5.624;2022-08-25T13:17:34;32.50;63.50
7196;DHT22;3639;51.308;5.624;2022-08-25T13:20:29;32.50;65.00
7196;DHT22;3639;51.308;5.624;2022-08-25T13:22:57;32.60;63.60
7196;DHT22;3639;51.308;5.624;2022-08-25T13:25:27;32.60;64.00
7196;DHT22;3639;51.308;5.624;2022-08-25T13:27:59;32.60;63.40
7196;DHT22;3639;51.308;5.624;2022-08-25T13:30:32;32.40;62.90
7196;DHT22;3639;51.308;5.624;2022-08-25T13:32:58;32.40;62.90
7196;DHT22;3639;51.308;5.624;2022-08-25T13:35:30;32.40;63.40
7196;DHT22;3639;51.308;5.624;2022-08-25T13:38:13;32.40;65.10
7196;DHT22;3639;51.308;5.624;2022-08-25T13:40:40;32.40;62.50
7196;DHT22;3639;51.308;5.624;2022-08-25T13:43:09;32.30;63.50
7196;DHT22;3639;51.308;5.624;2022-08-25T13:45:42;32.40;62.50
7196;DHT22;3639;51.308;5.624;2022-08-25T13:48:09;32.30;62.70
7196;DHT22;3639;51.308;5.624;2022-08-25T13:50:38;32.30;62.80
7196;DHT22;3639;51.308;5.624;2022-08-25T13:53:06;32.30;61.30
7196;DHT22;3639;51.308;5.624;2022-08-25T13:55:48;32.20;61.30
7196;DHT22;3639;51.308;5.624;2022-08-25T13:58:29;32.20;61.40
7196;DHT22;3639;51.308;5.624;2022-08-25T14:01:20;32.20;62.30
7196;DHT22;3639;51.308;5.624;2022-08-25T14:03:51;32.30;61.50
7196;DHT22;3639;51.308;5.624;2022-08-25T14:06:18;32.30;62.10
7196;DHT22;3639;51.308;5.624;2022-08-25T14:11:29;32.40;61.00
7196;DHT22;3639;51.308;5.624;2022-08-25T14:14:03;32.40;60.70
7196;DHT22;3639;51.308;5.624;2022-08-25T14:16:39;32.40;61.90
7196;DHT22;3639;51.308;5.624;2022-08-25T14:19:16;32.50;61.10
7196;DHT22;3639;51.308;5.624;2022-08-25T14:21:43;32.60;60.70
7196;DHT22;3639;51.308;5.624;2022-08-25T14:24:15;32.60;61.20
7196;DHT22;3639;51.308;5.624;2022-08-25T14:26:41;32.60;60.80
7196;DHT22;3639;51.308;5.624;2022-08-25T14:29:07;32.50;59.80
7196;DHT22;3639;51.308;5.624;2022-08-25T14:31:35;32.50;59.30
7196;DHT22;3639;51.308;5.624;2022-08-25T14:34:09;32.50;59.10
7196;DHT22;3639;51.308;5.624;2022-08-25T14:36:37;32.60;60.50
7196;DHT22;3639;51.308;5.624;2022-08-25T14:39:03;32.60;60.00
7196;DHT22;3639;51.308;5.624;2022-08-25T14:41:32;32.60;59.30
7196;DHT22;3639;51.308;5.624;2022-08-25T14:44:01;32.60;59.30
7196;DHT22;3639;51.308;5.624;2022-08-25T14:46:30;32.60;58.90
7196;DHT22;3639;51.308;5.624;2022-08-25T14:49:04;32.60;58.90
7196;DHT22;3639;51.308;5.624;2022-08-25T14:51:32;32.60;59.00
7196;DHT22;3639;51.308;5.624;2022-08-25T14:54:04;32.60;58.30
7196;DHT22;3639;51.308;5.624;2022-08-25T14:56:31;32.60;58.10
7196;DHT22;3639;51.308;5.624;2022-08-25T14:58:57;32.70;58.60
7196;DHT22;3639;51.308;5.624;2022-08-25T15:01:24;32.70;58.40
7196;DHT22;3639;51.308;5.624;2022-08-25T15:03:54;32.80;58.80
7196;DHT22;3639;51.308;5.624;2022-08-25T15:06:21;32.80;57.40
7196;DHT22;3639;51.308;5.624;2022-08-25T15:08:47;32.70;57.20
7196;DHT22;3639;51.308;5.624;2022-08-25T15:11:31;32.70;57.70
7196;DHT22;3639;51.308;5.624;2022-08-25T15:13:57;32.60;57.30
7196;DHT22;3639;51.308;5.624;2022-08-25T15:16:33;32.70;56.00
7196;DHT22;3639;51.308;5.624;2022-08-25T15:18:59;32.60;56.50
7196;DHT22;3639;51.308;5.624;2022-08-25T15:21:25;32.50;56.80
7196;DHT22;3639;51.308;5.624;2022-08-25T15:23:51;32.60;56.80
7196;DHT22;3639;51.308;5.624;2022-08-25T15:26:17;32.60;55.50
7196;DHT22;3639;51.308;5.624;2022-08-25T15:28:45;32.60;54.90
7196;DHT22;3639;51.308;5.624;2022-08-25T15:31:16;32.50;55.30
7196;DHT22;3639;51.308;5.624;2022-08-25T15:33:44;32.50;56.10
7196;DHT22;3639;51.308;5.624;2022-08-25T15:36:12;32.60;56.40
7196;DHT22;3639;51.308;5.624;2022-08-25T15:38:39;32.60;56.00
7196;DHT22;3639;51.308;5.624;2022-08-25T15:41:07;32.60;55.30
7196;DHT22;3639;51.308;5.624;2022-08-25T15:43:34;32.60;56.10
7196;DHT22;3639;51.308;5.624;2022-08-25T15:46:00;32.60;56.20
7196;DHT22;3639;51.308;5.624;2022-08-25T15:48:26;32.60;56.70
7196;DHT22;3639;51.308;5.624;2022-08-25T15:50:55;32.60;55.80
7196;DHT22;3639;51.308;5.624;2022-08-25T15:53:22;32.60;55.80
7196;DHT22;3639;51.308;5.624;2022-08-25T15:55:50;32.60;56.60
7196;DHT22;3639;51.308;5.624;2022-08-25T15:58:16;32.60;55.80
7196;DHT22;3639;51.308;5.624;2022-08-25T16:00:43;32.70;55.50
7196;DHT22;3639;51.308;5.624;2022-08-25T16:03:09;32.80;56.30
7196;DHT22;3639;51.308;5.624;2022-08-25T16:05:40;33.00;56.80
7196;DHT22;3639;51.308;5.624;2022-08-25T16:08:06;33.10;55.60
7196;DHT22;3639;51.308;5.624;2022-08-25T16:10:36;33.50;55.30
7196;DHT22;3639;51.308;5.624;2022-08-25T16:13:03;33.80;54.50
7196;DHT22;3639;51.308;5.624;2022-08-25T16:15:29;33.90;54.30
7196;DHT22;3639;51.308;5.624;2022-08-25T16:17:57;33.80;53.60
7196;DHT22;3639;51.308;5.624;2022-08-25T16:20:22;33.60;53.70
7196;DHT22;3639;51.308;5.624;2022-08-25T16:22:49;33.40;53.30
7196;DHT22;3639;51.308;5.624;2022-08-25T16:25:15;33.10;53.20
7196;DHT22;3639;51.308;5.624;2022-08-25T16:27:40;32.90;53.70
7196;DHT22;3639;51.308;5.624;2022-08-25T16:30:07;32.90;53.50
7196;DHT22;3639;51.308;5.624;2022-08-25T16:32:34;32.70;53.60
7196;DHT22;3639;51.308;5.624;2022-08-25T16:35:00;32.70;55.40
7196;DHT22;3639;51.308;5.624;2022-08-25T16:37:26;32.60;54.80
7196;DHT22;3639;51.308;5.624;2022-08-25T16:39:55;32.60;54.60
7196;DHT22;3639;51.308;5.624;2022-08-25T16:42:20;32.50;56.00
7196;DHT22;3639;51.308;5.624;2022-08-25T16:44:46;32.40;57.50
7196;DHT22;3639;51.308;5.624;2022-08-25T16:47:12;32.20;58.60
7196;DHT22;3639;51.308;5.624;2022-08-25T16:49:39;32.20;55.90
7196;DHT22;3639;51.308;5.624;2022-08-25T16:52:05;32.20;55.80
7196;DHT22;3639;51.308;5.624;2022-08-25T16:54:52;32.20;55.80
7196;DHT22;3639;51.308;5.624;2022-08-25T16:57:36;32.10;55.40
7196;DHT22;3639;51.308;5.624;2022-08-25T17:00:04;32.10;55.10
7196;DHT22;3639;51.308;5.624;2022-08-25T17:02:30;32.10;57.30
7196;DHT22;3639;51.308;5.624;2022-08-25T17:04:56;32.00;57.00
7196;DHT22;3639;51.308;5.624;2022-08-25T17:07:21;31.90;57.00
7196;DHT22;3639;51.308;5.624;2022-08-25T17:09:47;31.90;56.80
7196;DHT22;3639;51.308;5.624;2022-08-25T17:12:13;31.80;59.00
7196;DHT22;3639;51.308;5.624;2022-08-25T17:14:39;31.70;58.00
7196;DHT22;3639;51.308;5.624;2022-08-25T17:17:04;31.70;57.70
7196;DHT22;3639;51.308;5.624;2022-08-25T17:19:30;31.60;56.50
7196;DHT22;3639;51.308;5.624;2022-08-25T17:21:56;31.60;58.30
7196;DHT22;3639;51.308;5.624;2022-08-25T17:24:22;31.50;57.30
7196;DHT22;3639;51.308;5.624;2022-08-25T17:26:51;31.40;57.10
7196;DHT22;3639;51.308;5.624;2022-08-25T17:29:17;31.40;57.50
7196;DHT22;3639;51.308;5.624;2022-08-25T17:31:43;31.30;56.80
7196;DHT22;3639;51.308;5.624;2022-08-25T17:34:12;31.20;58.60
7196;DHT22;3639;51.308;5.624;2022-08-25T17:36:39;31.20;58.20
7196;DHT22;3639;51.308;5.624;2022-08-25T17:39:06;31.10;60.50
7196;DHT22;3639;51.308;5.624;2022-08-25T17:41:32;31.00;59.50
7196;DHT22;3639;51.308;5.624;2022-08-25T17:43:58;30.90;60.10
7196;DHT22;3639;51.308;5.624;2022-08-25T17:46:25;30.80;61.00
7196;DHT22;3639;51.308;5.624;2022-08-25T17:48:51;30.80;63.20
7196;DHT22;3639;51.308;5.624;2022-08-25T17:51:17;30.70;64.30
7196;DHT22;3639;51.308;5.624;2022-08-25T17:53:43;30.50;64.90
7196;DHT22;3639;51.308;5.624;2022-08-25T17:56:15;30.40;65.80
7196;DHT22;3639;51.308;5.624;2022-08-25T17:58:41;30.30;65.40
7196;DHT22;3639;51.308;5.624;2022-08-25T18:01:15;30.20;65.10
7196;DHT22;3639;51.308;5.624;2022-08-25T18:03:41;30.10;64.70
7196;DHT22;3639;51.308;5.624;2022-08-25T18:06:07;30.10;66.60
7196;DHT22;3639;51.308;5.624;2022-08-25T18:08:34;29.90;66.70
7196;DHT22;3639;51.308;5.624;2022-08-25T18:11:00;29.80;67.60
7196;DHT22;3639;51.308;5.624;2022-08-25T18:13:26;29.70;68.80
7196;DHT22;3639;51.308;5.624;2022-08-25T18:15:51;29.50;69.60
7196;DHT22;3639;51.308;5.624;2022-08-25T18:18:17;29.30;71.70